createdAt,value
2022-09-07T00:01:07.471Z,84.36
2022-09-07T00:03:36.034Z,84.11
2022-09-07T00:06:11.349Z,84.13
2022-09-07T00:08:43.700Z,84.12
2022-09-07T00:11:17.971Z,84.52
2022-09-07T00:13:49.363Z,84.35
2022-09-07T00:16:25.762Z,84.49
2022-09-07T00:18:56.195Z,84.76
2022-09-07T00:21:24.737Z,84.88
2022-09-07T00:23:54.216Z,85.04
2022-09-07T00:26:29.663Z,85.10
2022-09-07T00:29:00.826Z,85.35
2022-09-07T00:31:30.831Z,85.33
2022-09-07T00:34:01.203Z,85.42
2022-09-07T00:36:29.770Z,85.64
2022-09-07T00:38:58.399Z,85.55
2022-09-07T00:41:26.097Z,85.77
2022-09-07T00:43:57.980Z,85.89
2022-09-07T00:46:29.924Z,85.95
2022-09-07T00:49:19.901Z,85.92
2022-09-07T00:51:54.147Z,86.14
2022-09-07T00:54:39.970Z,86.21
2022-09-07T00:57:07.882Z,85.91
2022-09-07T00:59:45.204Z,85.89
2022-09-07T01:02:17.264Z,85.71
2022-09-07T01:04:50.802Z,85.58
2022-09-07T01:07:19.197Z,85.65
2022-09-07T01:09:47.587Z,85.49
2022-09-07T01:12:15.233Z,85.31
2022-09-07T01:14:50.699Z,85.18
2022-09-07T01:18:16.362Z,85.51
2022-09-07T01:21:08.279Z,85.65
2022-09-07T01:24:19.259Z,85.64
2022-09-07T01:27:44.186Z,85.74
2022-09-07T01:30:16.977Z,85.83
2022-09-07T01:33:09.742Z,85.73
2022-09-07T01:36:12.710Z,85.82
2022-09-07T01:38:53.166Z,85.95
2022-09-07T01:41:38.854Z,85.82
2022-09-07T01:44:24.978Z,85.54
2022-09-07T01:47:35.960Z,85.39
2022-09-07T01:50:16.645Z,85.07
2022-09-07T01:53:06.328Z,85.03
2022-09-07T01:55:47.932Z,84.99
2022-09-07T01:58:23.273Z,85.36
2022-09-07T02:01:00.267Z,85.33
2022-09-07T02:03:42.195Z,85.26
2022-09-07T02:06:24.442Z,85.06
2022-09-07T02:09:06.477Z,84.88
2022-09-07T02:11:39.441Z,84.99
2022-09-07T02:14:37.626Z,85.14
2022-09-07T02:17:21.583Z,85.56
2022-09-07T02:20:04.909Z,85.75
2022-09-07T02:22:39.125Z,85.93
2022-09-07T02:25:11.091Z,86.00
2022-09-07T02:27:53.028Z,85.74
2022-09-07T02:30:20.606Z,85.35
2022-09-07T02:32:49.066Z,85.14
2022-09-07T02:35:17.066Z,84.81
2022-09-07T02:37:45.735Z,84.62
2022-09-07T02:40:14.796Z,84.68
2022-09-07T02:42:45.386Z,84.69
2022-09-07T02:45:15.601Z,84.85
2022-09-07T02:48:28.371Z,84.97
2022-09-07T02:51:02.437Z,85.12
2022-09-07T02:53:39.448Z,85.05
2022-09-07T02:56:18.777Z,85.05
2022-09-07T02:59:21.344Z,84.85
2022-09-07T03:02:11.809Z,84.48
2022-09-07T03:05:15.035Z,84.01
2022-09-07T03:07:59.463Z,83.39
2022-09-07T03:10:28.667Z,83.12
2022-09-07T03:12:56.296Z,82.89
2022-09-07T03:15:27.784Z,82.78
2022-09-07T03:17:55.338Z,82.59
2022-09-07T03:20:23.295Z,82.55
2022-09-07T03:22:52.809Z,82.42
2022-09-07T03:25:20.759Z,82.24
2022-09-07T03:27:48.323Z,82.16
2022-09-07T03:30:15.964Z,82.17
2022-09-07T03:32:43.510Z,82.06
2022-09-07T03:35:14.318Z,81.93
2022-09-07T03:37:42.067Z,81.80
2022-09-07T03:40:13.577Z,81.61
2022-09-07T03:42:41.934Z,81.50
2022-09-07T03:45:11.100Z,81.44
2022-09-07T03:47:39.142Z,81.35
2022-09-07T03:50:07.806Z,81.21
2022-09-07T03:52:36.262Z,81.36
2022-09-07T03:55:05.112Z,81.40
2022-09-07T03:57:32.761Z,81.52
2022-09-07T04:00:00.350Z,81.43
2022-09-07T04:02:27.972Z,81.45
2022-09-07T04:04:55.515Z,81.54
2022-09-07T04:07:23.148Z,81.43
2022-09-07T04:09:53.571Z,81.53
2022-09-07T04:12:21.046Z,81.47
2022-09-07T04:14:49.096Z,81.28
2022-09-07T04:17:16.619Z,81.04
2022-09-07T04:19:44.252Z,80.90
2022-09-07T04:22:11.732Z,80.98
2022-09-07T04:24:39.239Z,81.05
2022-09-07T04:27:06.809Z,80.75
2022-09-07T04:29:34.397Z,80.59
2022-09-07T04:32:02.643Z,80.28
2022-09-07T04:34:30.292Z,80.13
2022-09-07T04:36:57.846Z,80.03
2022-09-07T04:39:25.544Z,79.72
2022-09-07T04:41:53.098Z,79.44
2022-09-07T04:44:20.626Z,79.42
2022-09-07T04:46:48.093Z,79.06
2022-09-07T04:49:15.601Z,78.82
2022-09-07T04:51:44.292Z,78.47
2022-09-07T04:54:12.378Z,78.43
2022-09-07T04:56:39.960Z,78.34
2022-09-07T04:59:07.580Z,78.29
2022-09-07T05:01:35.329Z,78.01
2022-09-07T05:04:05.078Z,77.45
2022-09-07T05:06:33.278Z,77.08
2022-09-07T05:09:01.276Z,76.72
2022-09-07T05:11:30.044Z,76.30
2022-09-07T05:13:59.759Z,76.55
2022-09-07T05:16:28.718Z,78.34
2022-09-07T05:19:01.565Z,78.26
2022-09-07T05:21:34.499Z,78.47
2022-09-07T05:24:02.909Z,78.41
2022-09-07T05:26:33.869Z,77.83
2022-09-07T05:31:51.842Z,76.65
2022-09-07T05:34:35.011Z,73.73
2022-09-07T05:37:02.768Z,73.09
2022-09-07T05:39:30.867Z,71.93
2022-09-07T05:41:58.412Z,71.82
2022-09-07T05:47:09.763Z,69.26
2022-09-07T05:49:37.581Z,68.73
2022-09-07T05:52:05.339Z,68.25
2022-09-07T05:54:32.893Z,67.52
2022-09-07T05:57:00.442Z,65.58
2022-09-07T05:59:27.927Z,66.19
2022-09-07T06:01:55.643Z,64.85
2022-09-07T06:04:23.258Z,65.36
2022-09-07T06:07:20.151Z,65.69
2022-09-07T06:12:26.492Z,63.00
2022-09-07T06:14:54.007Z,62.35
2022-09-07T06:17:21.479Z,60.64
2022-09-07T06:19:48.994Z,58.09
2022-09-07T06:22:17.008Z,59.69
2022-09-07T06:24:44.534Z,60.68
2022-09-07T06:27:12.419Z,59.98
2022-09-07T06:29:40.035Z,59.24
2022-09-07T06:34:55.188Z,58.12
2022-09-07T06:37:22.864Z,57.80
2022-09-07T06:39:50.385Z,58.00
2022-09-07T06:42:17.677Z,56.14
2022-09-07T06:44:45.066Z,54.88
2022-09-07T06:47:12.413Z,54.85
2022-09-07T06:49:39.700Z,54.30
2022-09-07T06:52:07.163Z,53.59
2022-09-07T06:57:21.941Z,51.21
2022-09-07T06:59:49.477Z,51.88
2022-09-07T07:02:16.826Z,51.75
2022-09-07T07:04:44.236Z,50.01
2022-09-07T07:07:13.938Z,49.72
2022-09-07T07:09:42.288Z,51.15
2022-09-07T07:12:10.963Z,50.67
2022-09-07T07:14:44.073Z,52.07
2022-09-07T07:17:13.415Z,52.64
2022-09-07T07:19:41.217Z,52.69
2022-09-07T07:22:45.549Z,53.68
2022-09-07T07:24:56.368Z,55.08
2022-09-07T07:27:24.144Z,56.11
2022-09-07T07:29:52.679Z,56.56
2022-09-07T07:32:20.236Z,56.18
2022-09-07T07:34:47.656Z,56.69
2022-09-07T07:37:16.169Z,56.23
2022-09-07T07:42:32.706Z,52.03
2022-09-07T07:47:51.642Z,49.16
2022-09-07T07:50:34.933Z,48.45
2022-09-07T07:55:51.402Z,49.89
2022-09-07T07:58:19.629Z,51.15
2022-09-07T08:00:54.746Z,50.64
2022-09-07T08:03:24.973Z,51.59
2022-09-07T08:05:52.933Z,52.10
2022-09-07T08:08:20.874Z,51.57
2022-09-07T08:10:48.473Z,49.06
2022-09-07T08:13:17.137Z,46.91
2022-09-07T08:15:45.287Z,47.37
2022-09-07T08:18:14.969Z,46.39
2022-09-07T08:20:43.085Z,46.64
2022-09-07T08:23:11.703Z,47.06
2022-09-07T08:25:39.471Z,46.94
2022-09-07T08:28:07.138Z,46.22
2022-09-07T08:30:35.058Z,45.98
2022-09-07T08:33:02.790Z,45.23
2022-09-07T08:35:30.304Z,44.47
2022-09-07T08:37:57.809Z,46.98
2022-09-07T08:40:25.272Z,46.26
2022-09-07T08:43:28.880Z,47.07
2022-09-07T08:46:24.641Z,45.90
2022-09-07T08:48:53.178Z,46.63
2022-09-07T08:51:36.278Z,45.44
2022-09-07T08:54:05.537Z,46.45
2022-09-07T08:57:20.608Z,45.56
2022-09-07T08:59:48.600Z,46.09
2022-09-07T09:02:38.347Z,45.42
2022-09-07T09:06:11.570Z,45.90
2022-09-07T09:08:28.667Z,45.91
2022-09-07T09:11:12.073Z,46.78
2022-09-07T09:14:02.729Z,45.24
2022-09-07T09:16:35.491Z,43.75
2022-09-07T09:19:55.510Z,43.37
2022-09-07T09:22:28.380Z,42.96
2022-09-07T09:25:20.363Z,42.28
2022-09-07T09:27:49.952Z,41.66
2022-09-07T09:30:22.135Z,40.33
2022-09-07T09:32:52.901Z,40.02
2022-09-07T09:35:32.632Z,39.06
2022-09-07T09:38:03.614Z,39.87
2022-09-07T09:40:35.244Z,43.21
2022-09-07T09:43:20.657Z,42.49
2022-09-07T09:48:48.977Z,41.20
2022-09-07T09:54:30.532Z,37.64
2022-09-07T09:56:58.048Z,37.50
2022-09-07T10:05:50.598Z,37.30
2022-09-07T10:08:23.964Z,39.17
2022-09-07T10:11:04.028Z,36.28
2022-09-07T10:13:53.124Z,37.32
2022-09-07T10:16:41.443Z,35.97
2022-09-07T10:19:36.654Z,36.81
2022-09-07T10:22:22.950Z,36.15
2022-09-07T10:24:51.055Z,38.11
2022-09-07T10:27:40.655Z,37.55
2022-09-07T10:30:16.767Z,37.74
2022-09-07T10:33:14.347Z,37.22
2022-09-07T10:35:58.869Z,36.87
2022-09-07T10:38:34.837Z,36.67
2022-09-07T10:41:09.742Z,35.69
2022-09-07T10:43:50.212Z,37.61
2022-09-07T10:46:56.963Z,35.00
2022-09-07T10:52:49.533Z,35.83
2022-09-07T10:55:28.830Z,36.26
2022-09-07T10:59:01.330Z,38.32
2022-09-07T11:01:42.927Z,37.69
2022-09-07T11:04:44.469Z,35.83
2022-09-07T11:07:50.562Z,35.63
2022-09-07T11:10:33.278Z,34.92
2022-09-07T11:13:05.662Z,33.05
2022-09-07T11:15:42.907Z,31.33
2022-09-07T11:18:35.323Z,32.40
2022-09-07T11:21:10.142Z,30.96
2022-09-07T11:23:45.088Z,29.85
2022-09-07T11:26:47.786Z,31.87
2022-09-07T11:29:36.520Z,30.49
2022-09-07T11:32:15.151Z,31.00
2022-09-07T11:34:52.152Z,30.15
2022-09-07T11:37:35.799Z,31.94
2022-09-07T11:40:31.337Z,30.29
2022-09-07T11:43:16.489Z,29.12
2022-09-07T11:45:59.823Z,31.75
2022-09-07T11:48:43.931Z,32.92
2022-09-07T11:51:39.795Z,32.41
2022-09-07T11:54:53.967Z,32.87
2022-09-07T11:57:54.892Z,35.01
2022-09-07T12:00:55.418Z,33.65
2022-09-07T12:03:44.646Z,31.47
2022-09-07T12:06:35.828Z,29.89
2022-09-07T12:09:48.156Z,31.43
2022-09-07T12:12:24.255Z,32.96
2022-09-07T12:15:15.729Z,32.74
2022-09-07T12:17:54.953Z,33.19
2022-09-07T12:20:45.891Z,32.14
2022-09-07T12:23:16.121Z,32.21
2022-09-07T12:25:47.546Z,32.54
2022-09-07T12:28:37.729Z,33.44
2022-09-07T12:31:12.376Z,34.96
2022-09-07T12:33:41.035Z,35.06
2022-09-07T12:36:26.607Z,35.56
2022-09-07T12:39:25.173Z,37.62
2022-09-07T12:45:29.969Z,37.89
2022-09-07T12:48:04.978Z,36.88
2022-09-07T12:50:56.672Z,38.28
2022-09-07T12:53:42.323Z,37.24
2022-09-07T13:00:27.198Z,35.94
2022-09-07T13:06:03.648Z,37.78
2022-09-07T13:08:33.409Z,39.41
2022-09-07T13:11:19.242Z,41.38
2022-09-07T13:14:05.299Z,41.85
2022-09-07T13:19:51.450Z,41.47
2022-09-07T13:22:31.119Z,42.19
2022-09-07T13:25:27.198Z,42.91
2022-09-07T13:28:13.941Z,43.12
2022-09-07T13:31:12.983Z,44.44
2022-09-07T13:33:51.739Z,44.82
2022-09-07T13:36:47.515Z,43.00
2022-09-07T13:39:21.684Z,43.30
2022-09-07T13:41:56.604Z,45.30
2022-09-07T13:44:33.520Z,44.46
2022-09-07T13:47:31.358Z,44.18
2022-09-07T13:50:26.453Z,44.35
2022-09-07T13:53:37.641Z,45.31
2022-09-07T13:56:40.247Z,45.24
2022-09-07T13:59:21.559Z,45.43
2022-09-07T14:01:50.797Z,45.69
2022-09-07T14:04:41.806Z,46.40
2022-09-07T14:07:20.320Z,44.92
2022-09-07T14:09:51.321Z,47.30
2022-09-07T14:12:21.870Z,45.55
2022-09-07T14:15:47.837Z,45.70
2022-09-07T14:18:22.357Z,44.89
2022-09-07T14:20:53.051Z,45.87
2022-09-07T14:23:30.852Z,45.95
2022-09-07T14:26:19.191Z,45.54
2022-09-07T14:28:53.938Z,46.39
2022-09-07T14:31:24.737Z,46.11
2022-09-07T14:33:56.938Z,46.62
2022-09-07T14:36:48.494Z,46.63
2022-09-07T14:39:20.987Z,47.84
2022-09-07T14:41:49.591Z,47.03
2022-09-07T14:44:34.239Z,46.47
2022-09-07T14:47:29.118Z,47.37
2022-09-07T14:50:05.186Z,47.32
2022-09-07T14:53:33.165Z,46.74
2022-09-07T14:55:41.957Z,47.53
2022-09-07T14:58:15.583Z,46.55
2022-09-07T15:03:40.885Z,46.52
2022-09-07T15:07:00.723Z,46.91
2022-09-07T15:08:57.797Z,47.25
2022-09-07T15:11:33.368Z,47.88
2022-09-07T15:14:17.391Z,47.97
2022-09-07T15:19:50.384Z,48.27
2022-09-07T15:22:19.160Z,48.80
2022-09-07T15:24:48.067Z,49.31
2022-09-07T15:27:28.734Z,49.33
2022-09-07T15:29:56.269Z,49.67
2022-09-07T15:32:23.602Z,49.56
2022-09-07T15:34:51.045Z,49.73
2022-09-07T15:40:22.521Z,49.68
2022-09-07T15:43:19.601Z,49.72
2022-09-07T15:45:37.520Z,49.98
2022-09-07T15:48:05.068Z,49.78
2022-09-07T15:50:32.535Z,50.12
2022-09-07T15:53:00.882Z,50.03
2022-09-07T15:55:28.630Z,50.82
2022-09-07T15:58:10.717Z,50.96
2022-09-07T16:00:39.200Z,50.91
2022-09-07T16:03:07.405Z,51.57
2022-09-07T16:05:35.359Z,51.77
2022-09-07T16:10:55.692Z,53.18
2022-09-07T16:13:24.352Z,53.39
2022-09-07T16:15:51.937Z,53.68
2022-09-07T16:18:19.318Z,54.10
2022-09-07T16:20:47.302Z,54.49
2022-09-07T16:23:16.774Z,55.02
2022-09-07T16:25:58.904Z,55.11
2022-09-07T16:28:26.961Z,55.55
2022-09-07T16:30:55.916Z,55.64
2022-09-07T16:33:31.227Z,55.79
2022-09-07T16:36:02.275Z,56.05
2022-09-07T16:38:47.597Z,56.33
2022-09-07T16:41:17.222Z,56.55
2022-09-07T16:43:46.121Z,56.90
2022-09-07T16:46:16.114Z,56.89
2022-09-07T16:48:44.103Z,57.32
2022-09-07T16:51:13.381Z,57.40
2022-09-07T16:53:41.171Z,57.53
2022-09-07T16:56:14.003Z,57.51
2022-09-07T16:58:46.740Z,57.32
2022-09-07T17:01:19.886Z,57.26
2022-09-07T17:03:49.524Z,57.22
2022-09-07T17:06:18.719Z,57.11
2022-09-07T17:08:47.085Z,57.15
2022-09-07T17:11:17.413Z,56.94
2022-09-07T17:13:45.541Z,58.50
2022-09-07T17:16:15.758Z,58.84
2022-09-07T17:21:36.997Z,60.10
2022-09-07T17:24:06.668Z,60.43
2022-09-07T17:26:34.209Z,60.12
2022-09-07T17:29:01.646Z,59.86
2022-09-07T17:34:19.699Z,59.94
2022-09-07T17:36:47.572Z,60.14
2022-09-07T17:39:17.180Z,60.13
2022-09-07T17:41:46.322Z,60.39
2022-09-07T17:44:13.630Z,60.34
2022-09-07T17:46:41.125Z,60.25
2022-09-07T17:49:16.528Z,60.72
2022-09-07T17:51:45.704Z,61.25
2022-09-07T17:54:15.697Z,62.45
2022-09-07T17:56:44.048Z,63.20
2022-09-07T18:01:59.614Z,64.34
2022-09-07T18:04:28.243Z,64.65
2022-09-07T18:06:55.677Z,65.54
2022-09-07T18:09:23.263Z,66.42
2022-09-07T18:11:51.013Z,67.32
2022-09-07T18:14:19.662Z,67.96
2022-09-07T18:16:49.660Z,68.13
2022-09-07T18:19:18.664Z,68.31
2022-09-07T18:21:48.064Z,68.24
2022-09-07T18:24:19.245Z,67.79
2022-09-07T18:26:52.449Z,67.52
2022-09-07T18:29:37.560Z,67.62
2022-09-07T18:32:09.354Z,67.69
2022-09-07T18:34:39.513Z,67.88
2022-09-07T18:37:08.807Z,68.11
2022-09-07T18:39:36.872Z,68.42
2022-09-07T18:42:04.295Z,68.30
2022-09-07T18:47:27.583Z,68.72
2022-09-07T18:49:55.647Z,69.00
2022-09-07T18:55:10.685Z,69.21
2022-09-07T18:57:38.506Z,69.73
2022-09-07T19:00:08.606Z,70.22
2022-09-07T19:02:36.250Z,70.80
2022-09-07T19:07:51.479Z,71.94
2022-09-07T19:10:19.091Z,72.48
2022-09-07T19:12:46.796Z,72.73
2022-09-07T19:15:14.440Z,72.98
2022-09-07T19:17:41.798Z,73.07
2022-09-07T19:20:09.821Z,73.22
2022-09-07T19:22:37.198Z,73.39
2022-09-07T19:25:06.101Z,73.36
2022-09-07T19:27:33.596Z,73.45
2022-09-07T19:30:01.274Z,73.31
2022-09-07T19:32:28.770Z,73.15
2022-09-07T19:34:56.053Z,72.90
2022-09-07T19:37:27.602Z,72.55
2022-09-07T19:39:55.400Z,72.34
2022-09-07T19:42:23.804Z,72.29
2022-09-07T19:44:51.974Z,72.37
2022-09-07T19:47:20.234Z,72.16
2022-09-07T19:49:47.673Z,72.08
2022-09-07T19:52:15.420Z,72.25
2022-09-07T19:54:42.778Z,72.20
2022-09-07T19:57:10.228Z,72.16
2022-09-07T19:59:37.497Z,72.26
2022-09-07T20:02:04.735Z,72.31
2022-09-07T20:04:32.089Z,72.53
2022-09-07T20:06:59.330Z,72.41
2022-09-07T20:09:27.147Z,72.41
2022-09-07T20:11:54.633Z,72.36
2022-09-07T20:14:22.296Z,72.68
2022-09-07T20:16:49.811Z,72.46
2022-09-07T20:19:17.510Z,72.63
2022-09-07T20:21:44.906Z,72.85
2022-09-07T20:24:12.793Z,72.89
2022-09-07T20:26:40.149Z,72.93
2022-09-07T20:31:55.779Z,74.01
2022-09-07T20:34:23.105Z,73.89
2022-09-07T20:36:50.906Z,75.05
2022-09-07T20:39:19.031Z,75.75
2022-09-07T20:41:47.005Z,76.43
2022-09-07T20:44:14.437Z,76.29
2022-09-07T20:46:42.105Z,76.40
2022-09-07T20:49:09.865Z,76.11
2022-09-07T20:51:37.426Z,76.00
2022-09-07T20:54:04.735Z,76.05
2022-09-07T20:56:31.977Z,75.91
2022-09-07T20:59:01.710Z,75.78
2022-09-07T21:01:30.324Z,75.59
2022-09-07T21:03:59.201Z,75.60
2022-09-07T21:06:28.187Z,75.85
2022-09-07T21:08:57.156Z,76.03
2022-09-07T21:11:32.716Z,76.14
2022-09-07T21:14:02.324Z,75.98
2022-09-07T21:16:30.982Z,75.81
2022-09-07T21:18:59.901Z,75.68
2022-09-07T21:21:29.113Z,75.51
2022-09-07T21:23:59.085Z,75.54
2022-09-07T21:26:28.100Z,75.62
2022-09-07T21:29:00.268Z,75.78
2022-09-07T21:31:29.299Z,76.02
2022-09-07T21:33:58.663Z,75.86
2022-09-07T21:36:27.000Z,75.89
2022-09-07T21:38:54.750Z,76.10
2022-09-07T21:41:23.954Z,75.91
2022-09-07T21:43:58.373Z,76.02
2022-09-07T21:46:26.898Z,76.20
2022-09-07T21:48:55.642Z,76.21
2022-09-07T21:51:23.801Z,76.09
2022-09-07T21:54:00.695Z,75.99
2022-09-07T21:56:29.567Z,75.92
2022-09-07T21:58:59.121Z,75.63
2022-09-07T22:01:28.088Z,75.52
2022-09-07T22:04:01.130Z,75.50
2022-09-07T22:06:28.844Z,75.70
2022-09-07T22:08:56.412Z,75.81
2022-09-07T22:11:26.054Z,75.71
2022-09-07T22:13:55.675Z,75.44
2022-09-07T22:16:23.451Z,75.26
2022-09-07T22:18:50.803Z,75.27
2022-09-07T22:21:24.131Z,75.25
2022-09-07T22:23:54.351Z,75.30
2022-09-07T22:26:23.414Z,74.92
2022-09-07T22:28:51.146Z,74.95
2022-09-07T22:31:21.517Z,74.96
2022-09-07T22:33:49.992Z,74.89
2022-09-07T22:36:19.862Z,74.87
2022-09-07T22:38:49.418Z,74.77
2022-09-07T22:41:19.634Z,74.71
2022-09-07T22:43:47.618Z,74.84
2022-09-07T22:46:15.007Z,74.75
2022-09-07T22:48:43.022Z,74.76
2022-09-07T22:51:11.425Z,74.80
2022-09-07T22:53:40.683Z,74.80
2022-09-07T22:56:19.832Z,75.35
2022-09-07T22:59:01.518Z,75.89
2022-09-07T23:01:30.294Z,76.05
2022-09-07T23:03:58.373Z,75.99
2022-09-07T23:06:34.548Z,76.10
2022-09-07T23:09:06.764Z,75.85
2022-09-07T23:11:34.183Z,75.57
2022-09-07T23:14:03.761Z,75.48
2022-09-07T23:16:31.160Z,75.44
2022-09-07T23:18:59.586Z,75.25
2022-09-07T23:21:27.653Z,74.90
2022-09-07T23:23:57.474Z,75.26
2022-09-07T23:26:26.664Z,75.15
2022-09-07T23:29:02.420Z,75.33
2022-09-07T23:31:31.401Z,75.79
2022-09-07T23:33:59.699Z,76.06
2022-09-07T23:36:27.058Z,76.25
2022-09-07T23:38:56.137Z,76.32
2022-09-07T23:41:24.937Z,76.17
2022-09-07T23:43:53.094Z,75.81
2022-09-07T23:46:21.110Z,75.91
2022-09-07T23:48:49.087Z,75.59
2022-09-07T23:51:21.249Z,75.34
2022-09-07T23:53:50.996Z,75.15
2022-09-07T23:56:18.218Z,75.49
2022-09-07T23:58:45.556Z,75.45
